Time;durP1;ratioP1;P1;durP2;ratioP2;P2;SDS_P1;SDS_P2;PMS_P1;PMS_P2;Temp;Humidity;BMP_temperature;BMP_pressure;BME280_temperature;BME280_humidity;BME280_pressure;Samples;Min_cycle;Max_cycle;Signal;HPM_P1;HPM_P2
2022/07/10 00:00:39;;;;;;;2.75;2.40;;;22.50;65.30;;;;;;4955031;28;20217;-72
2022/07/10 00:03:05;;;;;;;3.05;2.75;;;22.50;65.20;;;;;;4953141;28;20193;-73
2022/07/10 00:05:32;;;;;;;2.70;2.50;;;22.50;65.50;;;;;;4938037;29;20284;-73
2022/07/10 00:07:57;;;;;;;2.92;2.72;;;22.50;65.30;;;;;;4955317;28;20310;-73
2022/07/10 00:10:24;;;;;;;3.38;2.50;;;22.50;65.30;;;;;;4953937;29;20223;-73
2022/07/10 00:12:51;;;;;;;2.95;2.65;;;22.50;65.30;;;;;;4953500;28;20308;-73
2022/07/10 00:15:18;;;;;;;3.00;2.70;;;22.50;65.30;;;;;;4970093;28;20191;-73
2022/07/10 00:17:45;;;;;;;2.60;2.40;;;22.50;65.20;;;;;;4955035;28;20225;-73
2022/07/10 00:20:13;;;;;;;2.60;2.40;;;22.50;65.30;;;;;;4954339;29;20268;-73
2022/07/10 00:22:40;;;;;;;2.60;2.40;;;22.50;65.30;;;;;;4954101;28;20194;-73
2022/07/10 00:25:08;;;;;;;2.70;2.50;;;22.50;65.20;;;;;;4969183;28;20190;-73
2022/07/10 00:27:34;;;;;;;3.22;2.65;;;22.50;65.30;;;;;;4953978;29;20716;-73
2022/07/10 00:30:01;;;;;;;2.40;2.20;;;22.50;65.30;;;;;;4953625;29;20301;-73
2022/07/10 00:32:27;;;;;;;2.10;2.00;;;22.50;65.30;;;;;;4953929;29;20257;-73
2022/07/10 00:34:53;;;;;;;3.20;2.70;;;22.50;65.30;;;;;;4953385;29;20230;-73
2022/07/10 00:37:21;;;;;;;2.90;2.63;;;22.50;65.30;;;;;;4953792;28;20187;-73
2022/07/10 00:39:48;;;;;;;3.42;2.55;;;22.50;65.30;;;;;;4953734;29;20187;-73
2022/07/10 00:42:15;;;;;;;2.80;2.55;;;22.50;65.30;;;;;;4954408;28;20186;-73
2022/07/10 00:44:43;;;;;;;2.60;2.40;;;22.50;65.30;;;;;;4952901;28;20218;-73
2022/07/10 00:47:10;;;;;;;3.20;2.90;;;22.50;65.30;;;;;;4953247;28;20182;-73
2022/07/10 00:49:38;;;;;;;2.70;2.50;;;22.50;65.30;;;;;;4937116;28;20186;-73
2022/07/10 00:52:10;;;;;;;2.80;2.60;;;22.50;65.30;;;;;;4953410;29;20286;-73
2022/07/10 00:54:37;;;;;;;2.90;2.70;;;22.40;65.20;;;;;;4937577;29;20194;-72
2022/07/10 00:57:06;;;;;;;2.50;2.30;;;22.50;65.30;;;;;;4937563;28;20206;-73
2022/07/10 00:59:33;;;;;;;2.42;2.22;;;22.50;65.30;;;;;;4969351;28;20186;-73
2022/07/10 01:02:00;;;;;;;2.75;2.55;;;22.50;65.30;;;;;;4937268;29;20175;-72
2022/07/10 01:04:26;;;;;;;2.92;2.63;;;22.50;65.30;;;;;;4952661;29;20190;-73
2022/07/10 01:06:52;;;;;;;2.90;2.58;;;22.40;65.10;;;;;;4954314;29;20185;-72
2022/07/10 01:09:18;;;;;;;2.70;2.50;;;22.40;65.10;;;;;;4953366;29;20289;-73
2022/07/10 01:11:44;;;;;;;3.05;2.50;;;22.50;65.20;;;;;;4953405;28;20302;-73
2022/07/10 01:14:10;;;;;;;3.00;2.70;;;22.50;65.20;;;;;;4952865;28;20224;-73
2022/07/10 01:16:37;;;;;;;2.85;2.33;;;22.40;65.00;;;;;;4959404;29;20190;-73
2022/07/10 01:19:03;;;;;;;2.15;2.03;;;22.50;65.20;;;;;;4943715;29;20651;-73
2022/07/10 01:21:32;;;;;;;2.53;2.30;;;22.50;65.20;;;;;;4959437;28;20557;-73
2022/07/10 01:24:03;;;;;;;2.50;2.30;;;22.50;65.20;;;;;;4958706;28;20666;-73
2022/07/10 01:26:29;;;;;;;2.75;2.55;;;22.40;65.00;;;;;;4948464;28;20652;-73
2022/07/10 01:28:55;;;;;;;2.58;2.38;;;22.50;65.20;;;;;;4940087;28;20195;-73
2022/07/10 01:31:28;;;;;;;2.35;2.20;;;22.40;65.00;;;;;;4940153;29;20207;-73
2022/07/10 01:33:55;;;;;;;2.38;2.20;;;22.40;65.10;;;;;;4939556;28;20273;-73
2022/07/10 01:36:22;;;;;;;2.50;2.30;;;22.40;65.10;;;;;;4940338;29;20194;-73
2022/07/10 01:38:51;;;;;;;2.65;2.45;;;22.40;65.10;;;;;;4941234;29;20238;-73
2022/07/10 01:41:17;;;;;;;2.72;2.50;;;22.40;65.10;;;;;;4955814;28;20222;-73
2022/07/10 01:43:44;;;;;;;3.30;2.78;;;22.40;65.10;;;;;;4923683;29;20191;-73
2022/07/10 01:46:12;;;;;;;2.58;2.35;;;22.40;65.10;;;;;;4940401;28;20194;-73
2022/07/10 01:48:38;;;;;;;2.65;2.45;;;22.40;65.10;;;;;;4940353;29;20195;-73
2022/07/10 01:51:09;;;;;;;2.92;2.50;;;22.40;65.10;;;;;;4955981;29;20695;-73
2022/07/10 01:53:36;;;;;;;2.33;2.13;;;22.40;65.10;;;;;;4955711;28;20278;-73
2022/07/10 01:56:08;;;;;;;2.70;2.50;;;22.40;65.10;;;;;;4923863;29;20299;-73
2022/07/10 01:58:35;;;;;;;2.30;2.10;;;22.40;65.00;;;;;;4940032;29;20179;-73
2022/07/10 02:01:02;;;;;;;3.25;2.40;;;22.40;65.00;;;;;;4939738;29;20215;-73
2022/07/10 02:06:12;;;;;;;2.30;2.10;;;22.40;65.00;;;;;;4940993;29;20190;-73
2022/07/10 02:08:38;;;;;;;2.65;2.33;;;22.40;65.10;;;;;;4941738;28;20198;-73
2022/07/10 02:11:04;;;;;;;2.50;2.30;;;22.40;65.00;;;;;;4959566;28;20206;-73
2022/07/10 02:13:30;;;;;;;2.13;2.03;;;22.40;65.10;;;;;;4974826;28;20288;-73
2022/07/10 02:15:56;;;;;;;2.10;2.00;;;22.40;65.00;;;;;;4958897;28;20197;-73
2022/07/10 02:18:22;;;;;;;2.22;2.13;;;22.40;65.00;;;;;;4975439;28;20178;-73
2022/07/10 02:20:49;;;;;;;2.50;2.30;;;22.40;65.00;;;;;;4955685;28;20214;-73
2022/07/10 02:23:15;;;;;;;2.85;2.65;;;22.40;65.20;;;;;;4955165;28;20187;-73
2022/07/10 02:25:40;;;;;;;2.35;2.15;;;22.40;65.10;;;;;;4955428;28;20190;-73
2022/07/10 02:28:08;;;;;;;2.58;2.38;;;22.40;65.10;;;;;;4936142;29;20190;-73
2022/07/10 02:30:34;;;;;;;2.20;2.10;;;22.40;65.10;;;;;;4936634;28;20207;-73
2022/07/10 02:33:00;;;;;;;2.63;2.28;;;22.40;65.10;;;;;;4952667;28;20578;-73
2022/07/10 02:35:26;;;;;;;2.33;2.15;;;22.40;65.10;;;;;;4935979;28;20201;-73
2022/07/10 02:37:52;;;;;;;2.50;2.30;;;22.40;65.10;;;;;;4936316;29;20270;-73
2022/07/10 02:40:18;;;;;;;2.22;2.03;;;22.30;65.00;;;;;;4952781;28;20247;-73
2022/07/10 02:42:44;;;;;;;2.40;2.20;;;22.40;65.10;;;;;;4937162;29;20262;-73
2022/07/10 02:45:10;;;;;;;3.00;2.35;;;22.40;65.10;;;;;;4952177;28;20195;-73
2022/07/10 02:47:36;;;;;;;2.72;2.53;;;22.30;65.00;;;;;;4952575;28;20187;-73
2022/07/10 02:50:02;;;;;;;2.20;2.10;;;22.30;65.00;;;;;;4936242;29;20207;-73
2022/07/10 02:52:30;;;;;;;2.25;2.05;;;22.30;65.00;;;;;;4936416;28;20198;-73
2022/07/10 02:54:57;;;;;;;2.22;2.03;;;22.30;65.00;;;;;;4935888;29;20211;-73
2022/07/10 02:57:23;;;;;;;2.20;2.00;;;22.30;65.00;;;;;;4936427;28;20187;-73
2022/07/10 02:59:49;;;;;;;2.22;2.03;;;22.30;65.00;;;;;;4951964;28;20246;-73
2022/07/10 03:02:15;;;;;;;2.20;2.00;;;22.30;65.00;;;;;;4936398;28;20167;-73
2022/07/10 03:04:41;;;;;;;2.22;2.05;;;22.30;65.00;;;;;;4936608;29;20183;-73
2022/07/10 03:07:07;;;;;;;2.30;2.10;;;22.30;65.00;;;;;;4937062;29;20179;-73
2022/07/10 03:09:33;;;;;;;2.78;2.58;;;22.40;65.10;;;;;;4937196;28;20179;-73
2022/07/10 03:12:00;;;;;;;2.45;2.25;;;22.30;65.00;;;;;;4951879;28;20339;-73
2022/07/10 03:14:26;;;;;;;2.40;2.20;;;22.30;65.00;;;;;;4935178;28;20215;-73
2022/07/10 03:16:51;;;;;;;2.47;2.00;;;22.30;65.00;;;;;;4920146;29;20179;-73
2022/07/10 03:19:17;;;;;;;2.17;2.08;;;22.30;65.00;;;;;;4951854;28;20191;-73
2022/07/10 03:21:44;;;;;;;2.55;2.35;;;22.30;65.00;;;;;;4952013;28;20206;-73
2022/07/10 03:24:10;;;;;;;2.78;2.47;;;22.30;65.10;;;;;;4951376;28;20194;-73
2022/07/10 03:26:35;;;;;;;2.13;2.03;;;22.30;65.00;;;;;;4937013;29;20180;-73
2022/07/10 03:29:01;;;;;;;2.42;2.22;;;22.30;65.00;;;;;;4935770;29;20183;-73
2022/07/10 03:31:27;;;;;;;2.20;2.00;;;22.30;65.00;;;;;;4935536;28;20701;-73
2022/07/10 03:33:52;;;;;;;2.20;2.00;;;22.30;65.00;;;;;;4961077;28;20238;-73
2022/07/10 03:36:19;;;;;;;2.20;2.10;;;22.30;65.00;;;;;;4968114;28;20740;-73
2022/07/10 03:38:46;;;;;;;1.90;1.80;;;22.30;65.00;;;;;;4950289;28;20186;-73
2022/07/10 03:41:13;;;;;;;2.67;2.47;;;22.30;65.00;;;;;;4935115;29;20215;-73
2022/07/10 03:43:39;;;;;;;2.33;2.15;;;22.30;65.00;;;;;;4967478;28;20230;-73
2022/07/10 03:46:05;;;;;;;2.30;2.10;;;22.30;65.80;;;;;;4935767;29;20266;-73
2022/07/10 03:48:32;;;;;;;2.50;2.25;;;22.30;65.10;;;;;;4937636;29;20278;-73
2022/07/10 03:50:58;;;;;;;2.35;2.17;;;22.30;65.10;;;;;;4970702;28;20753;-73
2022/07/10 03:53:24;;;;;;;2.55;2.35;;;22.30;65.10;;;;;;4954624;28;20221;-73
2022/07/10 03:55:50;;;;;;;2.35;2.15;;;22.30;65.10;;;;;;4934461;29;20187;-73
2022/07/10 03:58:16;;;;;;;2.40;2.20;;;22.30;65.10;;;;;;4919465;29;20194;-73
2022/07/10 04:00:42;;;;;;;2.00;1.90;;;22.30;65.10;;;;;;4935087;29;20211;-73
2022/07/10 04:03:08;;;;;;;2.55;2.35;;;22.30;65.10;;;;;;4951021;28;20203;-73
2022/07/10 04:05:35;;;;;;;2.13;2.00;;;22.30;65.20;;;;;;4966834;28;20195;-73
2022/07/10 04:08:03;;;;;;;2.72;2.53;;;22.30;65.20;;;;;;4924897;29;20187;-73
2022/07/10 04:10:30;;;;;;;2.90;2.25;;;22.30;65.20;;;;;;4954258;28;20604;-73
2022/07/10 04:12:57;;;;;;;2.78;2.42;;;22.30;65.20;;;;;;4953907;28;20250;-73
2022/07/10 04:15:23;;;;;;;2.40;2.20;;;22.30;65.30;;;;;;4937779;29;20178;-73
2022/07/10 04:17:50;;;;;;;2.50;2.30;;;22.30;65.20;;;;;;4953416;28;20618;-73
2022/07/10 04:20:19;;;;;;;2.55;2.22;;;22.30;65.30;;;;;;4953790;29;20202;-73
2022/07/10 04:22:45;;;;;;;2.20;2.00;;;22.30;65.20;;;;;;4953847;28;20654;-73
2022/07/10 04:25:12;;;;;;;1.98;1.88;;;22.30;65.20;;;;;;4953463;28;20272;-73
2022/07/10 04:27:39;;;;;;;1.90;1.80;;;22.30;65.30;;;;;;4953829;28;20201;-73
2022/07/10 04:30:06;;;;;;;2.47;2.28;;;22.30;65.30;;;;;;4937613;29;20214;-73
2022/07/10 04:32:32;;;;;;;2.50;2.30;;;22.30;65.30;;;;;;4970651;28;20286;-73
2022/07/10 04:34:58;;;;;;;2.45;2.25;;;22.30;65.30;;;;;;4937741;29;20214;-73
2022/07/10 04:37:25;;;;;;;2.50;2.30;;;22.30;65.30;;;;;;4954788;28;20225;-73
2022/07/10 04:39:50;;;;;;;2.35;2.15;;;22.30;65.30;;;;;;4937499;28;20201;-73
2022/07/10 04:42:16;;;;;;;2.28;2.08;;;22.30;65.30;;;;;;4937395;29;20186;-73
2022/07/10 04:44:42;;;;;;;2.25;2.15;;;22.30;65.30;;;;;;4937291;29;20178;-72
2022/07/10 04:47:07;;;;;;;2.25;2.05;;;22.30;65.40;;;;;;4937557;29;20201;-73
2022/07/10 04:49:34;;;;;;;1.92;1.83;;;22.30;65.40;;;;;;4937081;28;20670;-73
2022/07/10 04:52:00;;;;;;;2.47;2.28;;;22.30;65.40;;;;;;4953563;29;20226;-72
2022/07/10 04:54:26;;;;;;;2.50;2.08;;;22.30;65.40;;;;;;4952842;28;20221;-73
2022/07/10 04:56:52;;;;;;;2.60;2.40;;;22.30;65.40;;;;;;4937258;28;20191;-73
2022/07/10 04:59:18;;;;;;;2.55;2.35;;;22.20;65.40;;;;;;4937339;28;20236;-73
2022/07/10 05:01:44;;;;;;;2.90;2.33;;;22.30;65.50;;;;;;4953062;29;20258;-73
2022/07/10 05:04:10;;;;;;;2.40;2.20;;;22.30;65.60;;;;;;4937052;28;20249;-73
2022/07/10 05:06:36;;;;;;;2.45;2.25;;;22.30;65.50;;;;;;4953202;29;20194;-73
2022/07/10 05:09:03;;;;;;;2.28;2.08;;;22.30;65.50;;;;;;4953144;28;20245;-73
2022/07/10 05:11:29;;;;;;;2.45;2.25;;;22.30;65.50;;;;;;4954491;29;20252;-73
2022/07/10 05:13:55;;;;;;;2.28;2.17;;;22.30;65.60;;;;;;4952883;28;20361;-73
2022/07/10 05:16:20;;;;;;;1.80;1.70;;;22.20;65.50;;;;;;4953025;29;20186;-73
2022/07/10 05:18:46;;;;;;;2.70;2.50;;;22.30;65.60;;;;;;4953238;29;20186;-73
2022/07/10 05:21:12;;;;;;;1.90;1.80;;;22.30;65.50;;;;;;4953032;29;20294;-73
2022/07/10 05:23:39;;;;;;;2.38;2.17;;;22.30;65.60;;;;;;4952601;28;20209;-73
2022/07/10 05:26:06;;;;;;;2.35;2.22;;;22.30;65.60;;;;;;4937464;29;20193;-73
2022/07/10 05:28:32;;;;;;;2.40;2.20;;;22.30;65.60;;;;;;4936965;29;20186;-73
2022/07/10 05:30:58;;;;;;;2.33;2.15;;;22.30;65.60;;;;;;4953103;28;20297;-73
2022/07/10 05:33:26;;;;;;;2.17;1.92;;;22.30;65.60;;;;;;4952638;29;20305;-73
2022/07/10 05:35:52;;;;;;;2.33;1.98;;;22.30;65.60;;;;;;4969133;28;20182;-73
2022/07/10 05:38:18;;;;;;;2.10;2.00;;;22.30;65.60;;;;;;4953051;29;20186;-73
2022/07/10 05:40:43;;;;;;;2.15;1.92;;;22.30;65.60;;;;;;4953126;28;20212;-73
2022/07/10 05:43:10;;;;;;;2.35;2.15;;;22.20;65.50;;;;;;4952623;29;20685;-73
2022/07/10 05:45:36;;;;;;;1.95;1.85;;;22.20;65.50;;;;;;4968356;28;20582;-73
2022/07/10 05:48:02;;;;;;;2.10;2.00;;;22.30;65.60;;;;;;4968837;28;20277;-73
2022/07/10 05:50:28;;;;;;;2.08;1.95;;;22.30;65.50;;;;;;4953979;28;20206;-73
2022/07/10 05:52:54;;;;;;;2.28;2.08;;;22.30;65.60;;;;;;4953952;28;20221;-73
2022/07/10 05:55:20;;;;;;;1.85;1.75;;;22.30;65.60;;;;;;4968676;28;20189;-73
2022/07/10 05:57:45;;;;;;;1.92;1.83;;;22.30;65.60;;;;;;4954070;28;20183;-73
2022/07/10 06:00:12;;;;;;;2.08;1.95;;;22.30;65.60;;;;;;4952558;28;20222;-73
2022/07/10 06:02:38;;;;;;;2.60;2.15;;;22.30;65.50;;;;;;4956299;28;20182;-73
2022/07/10 06:05:05;;;;;;;2.20;2.00;;;22.30;65.40;;;;;;4944419;28;20195;-73
2022/07/10 06:07:32;;;;;;;2.03;1.92;;;22.30;65.40;;;;;;4936962;28;20199;-73
2022/07/10 06:09:57;;;;;;;2.03;1.92;;;22.30;65.40;;;;;;4937130;29;20238;-73
2022/07/10 06:12:23;;;;;;;2.15;1.90;;;22.30;65.40;;;;;;4947310;29;20174;-73
2022/07/10 06:14:49;;;;;;;2.20;2.10;;;22.40;65.50;;;;;;4964091;28;20178;-73
2022/07/10 06:17:15;;;;;;;2.45;1.92;;;22.40;65.50;;;;;;4953261;29;20606;-73
2022/07/10 06:19:41;;;;;;;1.90;1.80;;;22.30;65.40;;;;;;4943579;29;20219;-73
2022/07/10 06:24:51;;;;;;;2.22;2.03;;;22.30;65.40;;;;;;4937558;29;20171;-73
2022/07/10 06:27:17;;;;;;;2.10;2.00;;;22.30;65.40;;;;;;4952707;28;20175;-73
2022/07/10 06:29:43;;;;;;;1.98;1.88;;;22.40;65.50;;;;;;4936661;29;20195;-73
2022/07/10 06:32:09;;;;;;;2.28;2.08;;;22.30;65.30;;;;;;4936963;29;20199;-73
2022/07/10 06:34:35;;;;;;;1.88;1.75;;;22.40;65.40;;;;;;4937241;29;20601;-73
2022/07/10 06:37:01;;;;;;;1.83;1.73;;;22.40;65.50;;;;;;4963184;28;20677;-73
2022/07/10 06:39:35;;;;;;;2.00;1.90;;;22.40;65.40;;;;;;4971667;28;20560;-73
2022/07/10 06:42:06;;;;;;;1.95;1.85;;;22.40;65.50;;;;;;4956634;28;20178;-73
2022/07/10 06:44:39;;;;;;;2.13;1.95;;;22.40;65.40;;;;;;4956135;28;20191;-73
2022/07/10 06:49:53;;;;;;;1.85;1.70;;;22.40;65.40;;;;;;4952470;28;20647;-73
2022/07/10 06:52:19;;;;;;;2.47;1.60;;;22.30;65.30;;;;;;4939133;28;20209;-73
2022/07/10 06:54:45;;;;;;;2.40;2.20;;;22.40;65.40;;;;;;4943579;28;20274;-73
2022/07/10 06:57:11;;;;;;;2.03;1.92;;;22.40;65.40;;;;;;4955519;28;20179;-73
2022/07/10 06:59:37;;;;;;;2.10;1.90;;;22.40;65.40;;;;;;4971496;28;20278;-73
2022/07/10 07:02:05;;;;;;;2.45;1.70;;;22.40;65.30;;;;;;4955323;28;20261;-73
2022/07/10 07:04:31;;;;;;;1.90;1.80;;;22.40;65.20;;;;;;4939074;28;20204;-73
2022/07/10 07:06:57;;;;;;;1.90;1.80;;;22.40;65.30;;;;;;4936052;28;20195;-73
2022/07/10 07:09:23;;;;;;;1.60;1.50;;;22.40;65.20;;;;;;4936309;28;20183;-73
2022/07/10 07:11:48;;;;;;;1.90;1.80;;;22.40;65.30;;;;;;4935994;28;20247;-73
2022/07/10 07:14:14;;;;;;;2.05;1.83;;;22.40;65.40;;;;;;4919441;28;20207;-73
2022/07/10 07:16:45;;;;;;;1.92;1.83;;;22.40;65.40;;;;;;4936961;28;20179;-73
2022/07/10 07:19:16;;;;;;;1.95;1.83;;;22.40;65.30;;;;;;4951774;28;20230;-73
2022/07/10 07:24:26;;;;;;;1.90;1.77;;;22.40;65.20;;;;;;4951196;29;20285;-73
2022/07/10 07:26:51;;;;;;;2.00;1.80;;;22.40;65.20;;;;;;4951814;28;20183;-73
2022/07/10 07:29:18;;;;;;;1.77;1.67;;;22.40;65.30;;;;;;4935658;29;20195;-72
2022/07/10 07:31:44;;;;;;;1.90;1.70;;;22.40;65.20;;;;;;4951777;28;20294;-72
2022/07/10 07:34:11;;;;;;;1.95;1.80;;;22.40;65.20;;;;;;4919482;29;20297;-72
2022/07/10 07:36:37;;;;;;;1.58;1.48;;;22.40;65.10;;;;;;4935901;29;20262;-72
2022/07/10 07:39:04;;;;;;;1.92;1.70;;;22.40;65.00;;;;;;4951608;28;20222;-72
2022/07/10 07:41:30;;;;;;;2.10;2.00;;;22.50;65.00;;;;;;4951256;28;20211;-72
2022/07/10 07:43:56;;;;;;;2.65;1.63;;;22.50;65.00;;;;;;4967269;28;20203;-72
2022/07/10 07:46:21;;;;;;;2.05;1.73;;;22.40;65.00;;;;;;4935936;29;20187;-72
2022/07/10 07:48:47;;;;;;;2.42;2.15;;;22.40;64.80;;;;;;4936270;29;20281;-72
2022/07/10 07:51:13;;;;;;;1.70;1.60;;;22.50;64.90;;;;;;4937078;29;20211;-72
2022/07/10 07:53:39;;;;;;;1.80;1.70;;;22.40;64.90;;;;;;4950093;28;20231;-72
2022/07/10 07:56:05;;;;;;;1.70;1.48;;;22.40;65.00;;;;;;4935226;29;20188;-72
2022/07/10 07:58:31;;;;;;;2.42;1.70;;;22.40;64.80;;;;;;4967439;28;20601;-72
2022/07/10 08:00:58;;;;;;;2.13;1.70;;;22.50;65.90;;;;;;4936172;29;20206;-72
2022/07/10 08:03:24;;;;;;;1.73;1.63;;;22.50;64.90;;;;;;4966990;28;20199;-72
2022/07/10 08:05:50;;;;;;;1.55;1.45;;;22.50;65.00;;;;;;4966379;28;20202;-72
2022/07/10 08:08:16;;;;;;;1.95;1.60;;;22.40;64.80;;;;;;4950936;29;20199;-72
2022/07/10 08:10:42;;;;;;;4.10;1.60;;;22.50;64.90;;;;;;4952103;28;20238;-72
2022/07/10 08:13:07;;;;;;;1.58;1.48;;;22.50;64.90;;;;;;4954395;28;20266;-72
2022/07/10 08:15:34;;;;;;;1.60;1.50;;;22.50;64.80;;;;;;4953740;28;20265;-74
2022/07/10 08:18:03;;;;;;;1.70;1.60;;;22.50;64.90;;;;;;4954038;28;20186;-72
2022/07/10 08:20:30;;;;;;;1.77;1.67;;;22.50;64.80;;;;;;4953695;28;20278;-71
2022/07/10 08:22:57;;;;;;;2.03;1.80;;;22.50;64.90;;;;;;4954942;28;20195;-72
2022/07/10 08:25:23;;;;;;;1.65;1.55;;;22.50;64.70;;;;;;4957347;28;20590;-72
2022/07/10 08:27:49;;;;;;;1.85;1.70;;;22.60;64.70;;;;;;4953776;29;20204;-71
2022/07/10 08:30:15;;;;;;;1.67;1.58;;;22.50;64.50;;;;;;4953642;29;20218;-71
2022/07/10 08:32:41;;;;;;;1.42;1.33;;;22.60;64.40;;;;;;4953798;28;20290;-71
2022/07/10 08:35:08;;;;;;;1.70;1.60;;;22.60;64.40;;;;;;4953162;28;20179;-72
2022/07/10 08:37:42;;;;;;;1.88;1.77;;;22.60;64.30;;;;;;4944890;28;20266;-71
2022/07/10 08:40:11;;;;;;;1.90;1.80;;;22.60;64.10;;;;;;4950613;28;20206;-71
2022/07/10 08:42:37;;;;;;;2.60;1.60;;;22.60;64.20;;;;;;4935776;29;20272;-72
2022/07/10 08:45:03;;;;;;;1.50;1.40;;;22.60;64.30;;;;;;4933832;29;20199;-72
2022/07/10 08:47:31;;;;;;;1.70;1.48;;;22.50;64.00;;;;;;4936934;29;20655;-72
2022/07/10 08:49:57;;;;;;;1.70;1.60;;;22.60;64.40;;;;;;4935424;29;20207;-71
2022/07/10 08:52:40;;;;;;;2.13;1.35;;;22.60;64.20;;;;;;4934523;29;20210;-71
2022/07/10 08:55:06;;;;;;;1.70;1.60;;;22.60;64.20;;;;;;4922765;29;20583;-71
2022/07/10 08:57:34;;;;;;;2.10;1.88;;;22.60;64.00;;;;;;4946105;28;20653;-72
2022/07/10 09:00:00;;;;;;;2.40;1.33;;;22.60;63.80;;;;;;4969369;28;20725;-71
2022/07/10 09:02:26;;;;;;;1.60;1.50;;;22.60;64.00;;;;;;4954839;28;20194;-71
2022/07/10 09:04:52;;;;;;;1.60;1.50;;;22.60;64.00;;;;;;4952801;28;20225;-71
2022/07/10 09:07:18;;;;;;;2.90;1.40;;;22.60;64.10;;;;;;4953570;29;20194;-71
2022/07/10 09:09:54;;;;;;;1.75;1.65;;;22.60;64.00;;;;;;4953157;28;20190;-71
2022/07/10 09:12:24;;;;;;;1.50;1.40;;;22.60;64.00;;;;;;4953007;28;20658;-71
2022/07/10 09:14:51;;;;;;;1.55;1.45;;;22.60;64.00;;;;;;4952818;28;20194;-71
2022/07/10 09:17:18;;;;;;;1.83;1.40;;;22.60;63.80;;;;;;4953136;29;20269;-71
2022/07/10 09:19:44;;;;;;;1.63;1.42;;;22.60;63.70;;;;;;4952814;29;20229;-71
2022/07/10 09:22:12;;;;;;;1.92;1.73;;;22.60;63.80;;;;;;4953406;28;20194;-71
2022/07/10 09:24:40;;;;;;;1.35;1.25;;;22.60;63.80;;;;;;4968851;28;20223;-71
2022/07/10 09:27:07;;;;;;;2.40;1.63;;;22.60;63.70;;;;;;4953401;28;20262;-71
2022/07/10 09:29:48;;;;;;;1.85;1.38;;;22.60;63.80;;;;;;4969262;28;20186;-72
2022/07/10 09:32:17;;;;;;;1.60;1.48;;;22.60;63.70;;;;;;4953071;29;20256;-71
2022/07/10 09:34:49;;;;;;;1.77;1.50;;;22.60;63.80;;;;;;4952366;28;20231;-72
2022/07/10 09:37:29;;;;;;;1.60;1.50;;;22.70;63.80;;;;;;4957627;28;20265;-71
2022/07/10 09:39:54;;;;;;;1.70;1.20;;;22.60;63.70;;;;;;4958295;28;20171;-71
2022/07/10 09:42:39;;;;;;;1.25;1.13;;;22.70;63.80;;;;;;4972572;28;20197;-71
2022/07/10 09:45:11;;;;;;;3.42;1.48;;;22.60;63.70;;;;;;4972542;28;20177;-71
2022/07/10 09:48:00;;;;;;;2.00;1.80;;;22.60;63.70;;;;;;4972739;28;20186;-71
2022/07/10 09:50:36;;;;;;;1.40;1.30;;;22.60;64.40;;;;;;4956485;28;20690;-71
2022/07/10 09:53:12;;;;;;;1.98;1.20;;;22.60;63.70;;;;;;4956471;28;20218;-71
2022/07/10 09:55:38;;;;;;;1.65;1.55;;;22.60;63.70;;;;;;4957123;28;20171;-71
2022/07/10 09:58:09;;;;;;;1.88;1.25;;;22.60;63.70;;;;;;4956401;28;20271;-71
2022/07/10 10:00:38;;;;;;;2.15;1.58;;;22.70;63.70;;;;;;4940620;28;20268;-71
2022/07/10 10:03:11;;;;;;;1.60;1.50;;;22.60;63.70;;;;;;4975725;28;20214;-71
2022/07/10 10:05:42;;;;;;;2.45;1.23;;;22.60;63.70;;;;;;4955312;28;20191;-70
2022/07/10 10:08:17;;;;;;;2.53;1.65;;;22.60;63.70;;;;;;4955038;28;20178;-71
2022/07/10 10:10:50;;;;;;;2.05;1.55;;;22.70;63.70;;;;;;4955959;28;20663;-71
2022/07/10 10:13:21;;;;;;;1.27;1.23;;;22.60;63.50;;;;;;4954002;28;20214;-72
2022/07/10 10:15:49;;;;;;;1.73;1.60;;;22.60;63.50;;;;;;4953843;28;20178;-71
2022/07/10 10:18:23;;;;;;;1.45;1.27;;;22.70;63.30;;;;;;4953858;28;20190;-72
2022/07/10 10:20:51;;;;;;;1.40;1.30;;;22.70;63.40;;;;;;4953648;28;20244;-71
2022/07/10 10:23:20;;;;;;;1.40;1.27;;;22.60;63.30;;;;;;4953676;28;20194;-71
2022/07/10 10:25:54;;;;;;;1.70;1.60;;;22.60;63.70;;;;;;4952875;29;20611;-71
2022/07/10 10:28:23;;;;;;;1.77;1.52;;;22.70;63.80;;;;;;4953674;29;20203;-71
2022/07/10 10:30:53;;;;;;;1.83;1.50;;;22.60;63.60;;;;;;4969803;28;20590;-71
2022/07/10 10:33:31;;;;;;;1.63;1.52;;;22.60;63.70;;;;;;4953587;28;20218;-71
2022/07/10 10:36:05;;;;;;;1.40;1.30;;;22.60;63.70;;;;;;4953039;28;20257;-71
2022/07/10 10:38:51;;;;;;;1.50;1.40;;;22.60;63.40;;;;;;4953549;28;20190;-71
2022/07/10 10:41:24;;;;;;;3.72;1.73;;;22.60;63.20;;;;;;4953239;28;20214;-71
2022/07/10 10:44:21;;;;;;;1.70;1.52;;;22.70;63.40;;;;;;4969350;28;20610;-72
2022/07/10 10:47:05;;;;;;;1.80;1.70;;;22.70;63.20;;;;;;4954825;28;20261;-71
2022/07/10 10:49:57;;;;;;;4.22;1.90;;;22.70;63.20;;;;;;4956746;28;20167;-71
2022/07/10 10:52:24;;;;;;;3.08;2.20;;;22.60;63.10;;;;;;4955567;29;20187;-71
2022/07/10 10:55:14;;;;;;;2.80;1.88;;;22.70;63.10;;;;;;4954827;28;20222;-71
2022/07/10 10:57:47;;;;;;;2.70;2.50;;;22.70;63.10;;;;;;4956776;28;20208;-71
2022/07/10 11:00:28;;;;;;;2.63;2.42;;;22.70;63.10;;;;;;4954495;28;20210;-71
2022/07/10 11:03:17;;;;;;;2.75;2.45;;;22.70;63.20;;;;;;4955467;29;20175;-72
2022/07/10 11:05:45;;;;;;;4.75;3.17;;;22.60;63.20;;;;;;4971210;28;20260;-71
2022/07/10 11:08:12;;;;;;;4.65;3.00;;;22.70;63.30;;;;;;4955146;28;20198;-72
2022/07/10 11:10:42;;;;;;;4.22;3.13;;;22.70;63.50;;;;;;4954825;28;20710;-71
2022/07/10 11:13:16;;;;;;;4.30;3.00;;;22.60;62.90;;;;;;4955017;29;20210;-72
2022/07/10 11:15:48;;;;;;;5.85;3.35;;;22.60;63.00;;;;;;4955722;29;20693;-71
2022/07/10 11:18:18;;;;;;;4.00;2.92;;;22.60;63.00;;;;;;4971054;28;20190;-71
2022/07/10 11:20:53;;;;;;;3.50;2.88;;;22.60;63.00;;;;;;4971184;28;20206;-71
2022/07/10 11:23:59;;;;;;;3.40;2.78;;;22.60;62.80;;;;;;4955277;29;20630;-71
2022/07/10 11:26:58;;;;;;;3.92;2.63;;;22.60;62.80;;;;;;4954984;28;20202;-72
2022/07/10 11:29:24;;;;;;;4.05;3.10;;;22.60;63.00;;;;;;4971084;28;20179;-71
2022/07/10 11:31:55;;;;;;;3.20;2.88;;;22.70;62.90;;;;;;4954728;28;20270;-71
2022/07/10 11:34:22;;;;;;;3.78;2.70;;;22.60;62.90;;;;;;4970579;28;20715;-72
2022/07/10 11:36:48;;;;;;;4.55;3.00;;;22.60;62.90;;;;;;4955022;28;20182;-71
2022/07/10 11:39:14;;;;;;;3.38;2.97;;;22.70;62.90;;;;;;4954624;29;20175;-72
2022/07/10 11:41:48;;;;;;;3.38;2.42;;;22.70;62.90;;;;;;4955985;28;20215;-71
2022/07/10 11:44:16;;;;;;;3.75;3.40;;;22.70;62.80;;;;;;4954044;29;20553;-72
2022/07/10 11:46:49;;;;;;;3.08;2.72;;;22.70;62.90;;;;;;4970589;28;20190;-71
2022/07/10 11:49:16;;;;;;;3.38;2.58;;;22.70;63.00;;;;;;4954636;28;20193;-71
2022/07/10 11:51:44;;;;;;;4.10;2.78;;;22.70;62.90;;;;;;4955593;29;20210;-71
2022/07/10 11:54:18;;;;;;;3.92;2.80;;;22.70;63.00;;;;;;4955729;28;20224;-71
2022/07/10 11:56:53;;;;;;;3.53;2.72;;;22.70;63.00;;;;;;4953672;28;20189;-71
2022/07/10 11:59:27;;;;;;;3.40;2.60;;;22.60;62.60;;;;;;4953751;28;20182;-72
2022/07/10 12:01:55;;;;;;;3.40;2.42;;;22.70;63.10;;;;;;4955673;28;20212;-72
2022/07/10 12:04:25;;;;;;;2.83;2.53;;;22.60;63.00;;;;;;4969689;28;20191;-72
2022/07/10 12:06:53;;;;;;;3.85;2.75;;;22.70;62.80;;;;;;4938091;29;20197;-71
2022/07/10 12:09:23;;;;;;;3.30;2.53;;;22.70;62.50;;;;;;4970163;28;20241;-71
2022/07/10 12:12:04;;;;;;;2.72;2.40;;;22.70;62.70;;;;;;4953964;29;20276;-71
2022/07/10 12:14:31;;;;;;;2.88;2.55;;;22.70;62.50;;;;;;4953285;28;20206;-71
2022/07/10 12:16:58;;;;;;;3.58;2.42;;;22.70;62.40;;;;;;4953889;28;20186;-71
2022/07/10 12:19:37;;;;;;;3.10;2.80;;;22.70;62.40;;;;;;4953877;28;20191;-71
2022/07/10 12:22:04;;;;;;;2.63;2.20;;;22.70;62.50;;;;;;4954266;29;20660;-72
2022/07/10 12:24:31;;;;;;;3.03;2.72;;;22.70;62.60;;;;;;4953596;28;20725;-71
2022/07/10 12:26:58;;;;;;;2.47;2.13;;;22.70;62.70;;;;;;4969767;28;20194;-72
2022/07/10 12:29:29;;;;;;;3.03;2.55;;;22.70;62.60;;;;;;4953824;28;20182;-72
2022/07/10 12:32:01;;;;;;;2.78;2.30;;;22.70;62.80;;;;;;4954006;28;20234;-71
2022/07/10 12:34:36;;;;;;;2.63;2.28;;;22.70;62.50;;;;;;4953350;28;20206;-72
2022/07/10 12:37:11;;;;;;;3.15;2.53;;;22.70;62.70;;;;;;4953431;28;20190;-71
2022/07/10 12:39:47;;;;;;;2.85;2.25;;;22.60;62.70;;;;;;4953474;28;20189;-71
2022/07/10 12:42:14;;;;;;;3.47;2.38;;;22.70;62.60;;;;;;4969703;28;20265;-71
2022/07/10 12:44:47;;;;;;;2.45;2.17;;;22.70;62.40;;;;;;4954298;28;20264;-71
2022/07/10 12:47:20;;;;;;;3.03;2.60;;;22.70;62.50;;;;;;4969642;28;20241;-71
2022/07/10 12:50:02;;;;;;;3.72;2.05;;;22.70;62.50;;;;;;4941610;29;20198;-71
2022/07/10 12:52:35;;;;;;;2.33;2.10;;;22.70;62.60;;;;;;4936375;29;20205;-71
2022/07/10 12:55:21;;;;;;;3.50;2.05;;;22.70;62.60;;;;;;4967451;28;20191;-72
2022/07/10 12:57:56;;;;;;;4.22;2.33;;;22.70;62.50;;;;;;4939572;28;20203;-72
2022/07/10 13:00:30;;;;;;;2.17;1.90;;;22.70;62.60;;;;;;4915525;29;20242;-72
2022/07/10 13:03:10;;;;;;;2.53;2.30;;;22.70;62.50;;;;;;4931673;28;20179;-71
2022/07/10 13:05:41;;;;;;;3.25;2.20;;;22.60;62.30;;;;;;4931311;29;20274;-71